createdAt,value
2022-10-30T00:00:39.258Z,18.63
2022-10-30T00:03:06.340Z,17.70
2022-10-30T00:05:33.001Z,19.27
2022-10-30T00:08:00.099Z,18.13
2022-10-30T00:10:27.071Z,19.95
2022-10-30T00:12:54.330Z,23.67
2022-10-30T00:15:20.910Z,22.10
2022-10-30T00:17:47.464Z,17.65
2022-10-30T00:20:14.110Z,22.40
2022-10-30T00:22:40.640Z,21.10
2022-10-30T00:25:07.665Z,21.35
2022-10-30T00:27:34.228Z,21.63
2022-10-30T00:30:00.832Z,17.77
2022-10-30T00:32:28.131Z,14.52
2022-10-30T00:34:54.725Z,17.38
2022-10-30T00:37:21.438Z,21.80
2022-10-30T00:39:48.081Z,20.67
2022-10-30T00:42:16.104Z,17.55
2022-10-30T00:44:45.645Z,16.50
2022-10-30T00:47:15.687Z,15.98
2022-10-30T00:50:01.184Z,18.80
2022-10-30T00:52:31.851Z,24.88
2022-10-30T00:55:03.853Z,14.95
2022-10-30T00:57:30.400Z,18.05
2022-10-30T00:59:57.478Z,16.90
2022-10-30T01:02:24.276Z,17.92
2022-10-30T01:04:53.398Z,14.65
2022-10-30T01:07:20.043Z,21.77
2022-10-30T01:09:48.073Z,23.10
2022-10-30T01:12:15.567Z,14.38
2022-10-30T01:14:47.819Z,19.02
2022-10-30T01:17:35.496Z,17.92
2022-10-30T01:20:26.876Z,16.05
2022-10-30T01:23:06.820Z,14.65
2022-10-30T01:25:33.374Z,24.90
2022-10-30T01:28:15.927Z,15.82
2022-10-30T01:31:13.705Z,17.42
2022-10-30T01:34:12.168Z,20.85
2022-10-30T01:36:46.217Z,24.40
2022-10-30T01:39:28.150Z,19.83
2022-10-30T01:41:54.822Z,19.60
2022-10-30T01:44:31.737Z,15.98
2022-10-30T01:47:15.085Z,23.42
2022-10-30T01:50:19.157Z,17.92
2022-10-30T01:53:00.056Z,19.17
2022-10-30T01:55:35.388Z,15.57
2022-10-30T01:58:20.213Z,13.73
2022-10-30T02:00:52.699Z,19.10
2022-10-30T02:03:19.736Z,17.60
2022-10-30T02:05:49.710Z,18.58
2022-10-30T02:08:17.296Z,18.55
2022-10-30T02:10:46.281Z,17.65
2022-10-30T02:13:13.309Z,21.65
2022-10-30T02:15:41.814Z,17.00
2022-10-30T02:18:09.485Z,20.73
2022-10-30T02:20:37.135Z,20.55
2022-10-30T02:23:04.619Z,21.17
2022-10-30T02:25:31.397Z,24.48
2022-10-30T02:27:58.077Z,18.42
2022-10-30T02:30:24.713Z,17.00
2022-10-30T02:32:51.267Z,15.45
2022-10-30T02:35:17.812Z,25.63
2022-10-30T02:37:44.405Z,17.00
2022-10-30T02:40:12.343Z,19.20
2022-10-30T02:42:38.974Z,23.52
2022-10-30T02:45:05.906Z,18.38
2022-10-30T02:47:33.961Z,16.98
2022-10-30T02:50:00.550Z,23.17
2022-10-30T02:52:27.158Z,18.75
2022-10-30T02:54:53.713Z,15.63
2022-10-30T02:57:20.250Z,18.67
2022-10-30T02:59:46.850Z,16.50
2022-10-30T03:02:13.439Z,17.65
2022-10-30T03:04:40.086Z,19.63
2022-10-30T03:07:06.681Z,15.98
2022-10-30T03:09:33.263Z,15.80
2022-10-30T03:11:59.868Z,17.42
2022-10-30T03:14:26.758Z,12.55
2022-10-30T10:39:07.587Z,9.13
2022-10-30T10:41:34.132Z,12.20
2022-10-30T10:44:15.134Z,11.32
2022-10-30T10:47:14.085Z,12.43
2022-10-30T10:49:52.649Z,8.82
2022-10-30T10:52:24.807Z,11.88
2022-10-30T10:55:05.111Z,12.95
2022-10-30T10:57:37.991Z,14.57
2022-10-30T11:00:14.083Z,10.13
2022-10-30T11:02:42.361Z,11.77
2022-10-30T11:05:36.335Z,14.93
2022-10-30T11:08:33.116Z,12.23
2022-10-30T11:11:01.982Z,14.25
2022-10-30T11:13:31.984Z,10.57
2022-10-30T11:16:29.466Z,10.15
2022-10-30T11:19:00.469Z,12.80
2022-10-30T11:21:29.712Z,9.07
2022-10-30T11:26:25.537Z,13.15
2022-10-30T11:31:37.788Z,11.65
2022-10-30T11:34:19.923Z,7.65
2022-10-30T11:36:49.130Z,10.55
2022-10-30T11:39:24.899Z,11.38
2022-10-30T11:41:54.769Z,6.88
2022-10-30T11:44:30.740Z,10.98
2022-10-30T11:46:58.390Z,10.13
2022-10-30T11:49:48.397Z,10.15
2022-10-30T11:52:18.439Z,9.20
2022-10-30T11:54:50.738Z,10.68
2022-10-30T11:57:46.386Z,8.27
2022-10-30T12:00:28.104Z,12.27
2022-10-30T12:02:58.543Z,10.07
2022-10-30T12:05:25.288Z,9.88
2022-10-30T12:07:53.348Z,11.80
2022-10-30T12:10:28.165Z,10.85
2022-10-30T12:12:55.257Z,10.73
2022-10-30T12:15:26.526Z,10.75
2022-10-30T12:17:55.348Z,16.45
2022-10-30T12:20:22.211Z,12.00
2022-10-30T12:22:49.524Z,12.70
2022-10-30T12:25:40.161Z,6.85
2022-10-30T12:28:16.640Z,12.15
2022-10-30T12:30:50.184Z,10.10
2022-10-30T12:33:50.112Z,8.18
2022-10-30T12:36:28.053Z,10.40
2022-10-30T12:39:22.230Z,7.13
2022-10-30T12:42:01.625Z,14.90
2022-10-30T12:44:37.074Z,13.20
2022-10-30T12:47:03.697Z,12.20
2022-10-30T12:50:09.205Z,7.93
2022-10-30T12:52:53.919Z,8.88
2022-10-30T12:55:40.550Z,11.90
2022-10-30T12:58:26.293Z,9.57
2022-10-30T13:01:13.113Z,14.77
2022-10-30T13:03:48.651Z,9.05
2022-10-30T13:06:19.552Z,7.68
2022-10-30T13:09:15.545Z,8.35
2022-10-30T13:11:52.803Z,10.57
2022-10-30T13:14:22.537Z,9.10
2022-10-30T13:16:51.041Z,10.43
2022-10-30T13:19:17.657Z,10.18
2022-10-30T13:22:00.603Z,11.00
2022-10-30T13:25:05.276Z,15.93
2022-10-30T13:27:31.835Z,10.23
2022-10-30T13:30:07.194Z,9.45
2022-10-30T13:32:39.999Z,14.50
2022-10-30T13:35:21.978Z,14.50
2022-10-30T13:38:25.976Z,8.15
2022-10-30T13:40:56.331Z,6.82
2022-10-30T13:43:31.067Z,7.43
2022-10-30T13:46:26.630Z,8.50
2022-10-30T13:49:02.384Z,9.85
2022-10-30T13:52:10.362Z,12.30
2022-10-30T13:54:42.550Z,7.53
2022-10-30T13:57:15.108Z,8.25
2022-10-30T13:59:49.363Z,11.48
2022-10-30T14:03:05.396Z,8.85
2022-10-30T14:06:03.012Z,7.45
2022-10-30T14:08:56.588Z,10.43
2022-10-30T14:11:23.211Z,8.07
2022-10-30T14:13:58.378Z,12.73
2022-10-30T14:17:09.713Z,8.13
2022-10-30T14:20:12.487Z,10.00
2022-10-30T14:22:41.167Z,9.20
2022-10-30T14:25:16.180Z,9.40
2022-10-30T14:27:43.172Z,8.43
2022-10-30T14:30:20.380Z,6.45
2022-10-30T14:32:53.847Z,7.82
2022-10-30T14:35:35.873Z,9.23
2022-10-30T14:38:08.788Z,6.85
2022-10-30T14:40:42.090Z,8.93
2022-10-30T14:43:42.746Z,8.68
2022-10-30T14:46:32.232Z,9.18
2022-10-30T14:49:24.159Z,9.43
2022-10-30T14:52:32.741Z,10.93
2022-10-30T14:55:05.309Z,9.45
2022-10-30T14:57:51.485Z,12.75
2022-10-30T15:00:23.934Z,11.50
2022-10-30T15:02:56.642Z,9.05
2022-10-30T15:05:32.497Z,11.68
2022-10-30T15:08:31.139Z,10.88
2022-10-30T15:10:57.755Z,10.90
2022-10-30T15:13:24.457Z,9.93
2022-10-30T15:15:59.909Z,9.57
2022-10-30T15:18:30.527Z,6.82
2022-10-30T15:21:06.671Z,12.68
2022-10-30T15:23:36.011Z,9.65
2022-10-30T15:28:38.919Z,9.48
2022-10-30T15:31:05.724Z,7.28
2022-10-30T15:33:35.514Z,8.30
2022-10-30T15:36:02.352Z,12.57
2022-10-30T15:38:29.318Z,11.55
2022-10-30T15:41:02.187Z,9.07
2022-10-30T15:43:33.666Z,12.43
2022-10-30T15:46:00.469Z,9.52
2022-10-30T15:48:33.812Z,8.52
2022-10-30T15:51:15.575Z,9.15
2022-10-30T15:53:53.239Z,7.53
2022-10-30T15:56:31.220Z,8.57
2022-10-30T15:59:01.807Z,8.23
2022-10-30T16:01:44.794Z,7.57
2022-10-30T16:04:25.034Z,10.57
2022-10-30T16:06:57.629Z,7.65
2022-10-30T16:09:25.620Z,19.63
2022-10-30T16:11:55.361Z,11.75
2022-10-30T16:14:24.720Z,10.13
2022-10-30T16:19:28.043Z,10.68
2022-10-30T16:21:57.740Z,17.67
2022-10-30T16:24:35.256Z,22.37
2022-10-30T16:27:18.230Z,27.08
2022-10-30T16:29:46.967Z,18.00
2022-10-30T16:32:17.596Z,16.40
2022-10-30T16:34:46.190Z,17.15
2022-10-30T16:37:21.179Z,13.80
2022-10-30T16:39:50.796Z,12.27
2022-10-30T16:42:22.041Z,14.82
2022-10-30T16:44:48.873Z,15.00
2022-10-30T16:47:25.843Z,15.73
2022-10-30T16:49:56.684Z,13.18
2022-10-30T16:52:28.389Z,9.57
2022-10-30T16:55:07.905Z,11.80
2022-10-30T16:57:42.622Z,10.80
2022-10-30T17:00:24.429Z,10.68
2022-10-30T17:02:56.197Z,11.98
2022-10-30T17:05:34.301Z,9.43
2022-10-30T17:08:04.423Z,11.38
2022-10-30T17:10:35.232Z,7.72
2022-10-30T17:13:36.203Z,9.82
2022-10-30T17:16:29.577Z,12.52
2022-10-30T17:19:02.101Z,9.07
2022-10-30T17:21:38.412Z,13.07
2022-10-30T17:24:05.464Z,9.68
2022-10-30T17:26:41.042Z,10.82
2022-10-30T17:29:36.738Z,10.52
2022-10-30T17:32:20.341Z,9.23
2022-10-30T17:34:48.246Z,9.90
2022-10-30T17:37:14.905Z,10.40
2022-10-30T17:39:41.562Z,14.85
2022-10-30T17:42:10.238Z,7.25
2022-10-30T17:44:37.524Z,8.63
2022-10-30T17:47:18.724Z,9.18
2022-10-30T17:49:46.005Z,10.48
2022-10-30T17:52:21.919Z,6.97
2022-10-30T17:54:48.792Z,8.55
2022-10-30T17:57:16.758Z,8.20
2022-10-30T17:59:43.696Z,12.20
2022-10-30T18:02:19.137Z,12.10
2022-10-30T18:04:47.810Z,9.75
2022-10-30T18:07:16.381Z,12.30
2022-10-30T18:09:43.906Z,11.03
2022-10-30T18:12:17.148Z,11.85
2022-10-30T18:14:45.690Z,8.32
2022-10-30T18:17:12.901Z,11.27
2022-10-30T18:19:39.700Z,13.50
2022-10-30T18:22:06.365Z,8.02
2022-10-30T18:24:33.058Z,11.68
2022-10-30T18:26:59.730Z,11.68
2022-10-30T18:29:26.363Z,10.82
2022-10-30T18:31:52.984Z,8.68
2022-10-30T18:34:21.644Z,12.32
2022-10-30T18:36:48.874Z,9.63
2022-10-30T18:39:15.661Z,10.07
2022-10-30T18:41:46.590Z,10.07
2022-10-30T18:44:15.777Z,9.90
2022-10-30T18:46:43.132Z,11.18
2022-10-30T18:49:10.083Z,8.52
2022-10-30T18:51:37.268Z,11.82
2022-10-30T18:54:07.969Z,7.30
2022-10-30T18:56:34.520Z,10.32
2022-10-30T18:59:02.535Z,13.80
2022-10-30T19:01:33.317Z,10.85
2022-10-30T19:04:04.549Z,12.18
2022-10-30T19:06:34.360Z,8.30
2022-10-30T19:09:01.374Z,9.90
2022-10-30T19:11:30.839Z,12.60
2022-10-30T19:13:58.328Z,12.43
2022-10-30T19:16:25.445Z,7.65
2022-10-30T19:18:52.801Z,11.68
2022-10-30T19:21:22.663Z,8.65
2022-10-30T19:23:49.733Z,14.80
2022-10-30T19:26:17.579Z,10.35
2022-10-30T19:28:45.419Z,8.23
2022-10-30T19:31:16.809Z,10.43
2022-10-30T19:33:44.057Z,11.80
2022-10-30T19:36:26.287Z,10.18
2022-10-30T19:38:52.950Z,10.23
2022-10-30T19:41:19.745Z,9.10
2022-10-30T19:43:46.419Z,15.23
2022-10-30T19:46:14.758Z,7.65
2022-10-30T19:48:56.767Z,12.05
2022-10-30T19:51:24.109Z,10.23
2022-10-30T19:53:52.696Z,8.13
2022-10-30T19:56:20.345Z,15.50
2022-10-30T19:58:46.973Z,7.78
2022-10-30T20:01:14.244Z,9.20
2022-10-30T20:03:40.936Z,9.43
2022-10-30T20:06:07.729Z,13.63
2022-10-30T20:08:34.376Z,8.63
2022-10-30T20:11:02.399Z,14.15
2022-10-30T20:13:30.275Z,11.50
2022-10-30T20:15:59.310Z,12.75
2022-10-30T20:18:31.658Z,11.52
2022-10-30T20:21:00.745Z,9.05
2022-10-30T20:23:28.064Z,8.45
2022-10-30T20:25:59.873Z,11.43
2022-10-30T20:28:31.504Z,11.27
2022-10-30T20:30:58.200Z,9.48
2022-10-30T20:33:27.986Z,9.63
2022-10-30T20:35:55.278Z,9.68
2022-10-30T20:38:29.261Z,11.60
2022-10-30T20:40:57.304Z,11.27
2022-10-30T20:43:32.976Z,9.05
2022-10-30T20:46:00.747Z,10.27
2022-10-30T20:48:28.783Z,14.65
2022-10-30T20:50:59.795Z,10.75
2022-10-30T20:53:26.892Z,9.40
2022-10-30T20:55:53.499Z,10.40
2022-10-30T20:58:20.344Z,10.65
2022-10-30T21:00:47.649Z,9.95
2022-10-30T21:03:14.903Z,13.15
2022-10-30T21:05:45.103Z,10.23
2022-10-30T21:08:14.130Z,9.85
2022-10-30T21:10:41.760Z,14.40
2022-10-30T21:13:09.560Z,8.90
2022-10-30T21:15:42.926Z,9.23
2022-10-30T21:18:10.839Z,9.77
2022-10-30T21:20:37.835Z,8.80
2022-10-30T21:23:05.242Z,14.23
2022-10-30T21:25:32.634Z,11.50
2022-10-30T21:27:59.984Z,11.98
2022-10-30T21:30:27.517Z,13.23
2022-10-30T21:32:54.099Z,11.90
2022-10-30T21:35:21.005Z,14.35
2022-10-30T21:37:47.681Z,11.48
2022-10-30T21:40:14.404Z,11.32
2022-10-30T21:42:41.052Z,16.25
2022-10-30T21:45:08.728Z,13.43
2022-10-30T21:47:35.408Z,16.10
2022-10-30T21:50:06.277Z,12.07
2022-10-30T21:52:36.208Z,10.95
2022-10-30T21:55:03.101Z,14.35
2022-10-30T21:57:29.795Z,13.10
2022-10-30T21:59:58.851Z,9.82
2022-10-30T22:02:28.359Z,8.63
2022-10-30T22:04:55.289Z,10.73
2022-10-30T22:07:21.979Z,10.95
2022-10-30T22:09:48.584Z,15.68
2022-10-30T22:12:15.150Z,9.73
2022-10-30T22:14:41.775Z,10.68
2022-10-30T22:17:08.802Z,9.02
2022-10-30T22:19:35.434Z,13.10
2022-10-30T22:22:02.030Z,11.00
2022-10-30T22:24:28.657Z,11.23
2022-10-30T22:26:55.280Z,8.93
2022-10-30T22:29:21.979Z,11.52
2022-10-30T22:31:49.769Z,12.13
2022-10-30T22:34:16.373Z,9.82
2022-10-30T22:36:43.065Z,10.43
2022-10-30T22:39:13.834Z,8.98
2022-10-30T22:41:41.431Z,7.88
2022-10-30T22:44:12.586Z,9.70
2022-10-30T22:46:39.401Z,12.07
2022-10-30T22:49:07.199Z,10.18
2022-10-30T22:51:36.582Z,6.60
2022-10-30T22:56:36.165Z,14.73
2022-10-30T22:59:08.170Z,13.85
2022-10-30T23:01:36.811Z,15.75
2022-10-30T23:04:05.327Z,14.10
2022-10-30T23:06:34.252Z,12.47
2022-10-30T23:09:03.569Z,12.98
2022-10-30T23:11:30.514Z,14.02
2022-10-30T23:13:57.454Z,14.20
2022-10-30T23:16:26.005Z,15.73
2022-10-30T23:18:55.446Z,9.13
2022-10-30T23:23:50.334Z,15.40
2022-10-30T23:26:21.572Z,12.20
2022-10-30T23:28:49.645Z,10.63
2022-10-30T23:31:25.630Z,9.38
2022-10-30T23:33:54.304Z,11.90
2022-10-30T23:36:21.172Z,12.80
2022-10-30T23:38:55.748Z,11.82
2022-10-30T23:41:24.604Z,14.85
2022-10-30T23:43:59.489Z,11.40
2022-10-30T23:46:27.310Z,13.20
2022-10-30T23:48:54.070Z,17.08
2022-10-30T23:51:21.579Z,16.17
2022-10-30T23:53:48.716Z,15.15
2022-10-30T23:56:16.316Z,12.60
2022-10-30T23:58:47.334Z,12.48
